帯広空港の過去48時間の天気

帯広空港 (Obihiro)

現在時刻: 4/27 13:59 JST (4/27 04:59 UTC) 以下の時間は現地時間です。

過去48時間のMETAR気象情報
時間 風向 風速(m/s) 視程 気温(℃) 湿度(%) 気圧(hPa) 天気現象
27 13:00 北北西 3 10km以上 18 42 1001
27 12:00 6 10km以上 18 45 1001
27 11:00 7 10km以上 18 42 1001
27 10:00 北北西 5 10km以上 18 42 1001
27 09:00 2 10km以上 17 48 1001
27 08:00 東南東 2 10km以上 13 54 1000
27 07:40 東南東 2 10km以上 12 58 1000
26 20:00 静穏 0 10km以上 10 58 1001
26 19:00 不定 1 10km以上 13 44 1000
26 18:00 5 10km以上 14 44 999
26 17:00 北北西 6 10km以上 15 41 999
26 16:00 北北西 8 10km以上 16 42 998
26 15:00 北西 7 10km以上 15 41 998
26 14:00 北西 6 10km以上 16 48 997
26 13:00 北北西 4 10km以上 14 67 997
26 12:00 不定 1 10km以上 13 67 997
26 11:00 不定 1 10km以上 11 71 998
26 10:00 不定 1 10km以上 10 71 999
26 09:00 不定 1 10km以上 8 81 999 弱いしゅう雨
26 08:00 北北東 2 10km以上 7 81 1000
26 07:40 北北東 2 10km以上 7 81 1000
25 20:00 北西 5 10km以上 4 93 1008 弱いしゅう雨
25 19:00 北北西 6 5,000m 5 87 1009 弱いしゅう雨 もや
25 18:00 6 4,000m 5 93 1009 しゅう雨 もや
25 17:00 北北西 4 4,000m 6 100 1010 雨 もや
25 16:27 北北西 2 4,000m 6 100 1010 雨 もや
25 16:00 不定 1 4,000m 6 100 1010 弱い雨 もや
25 15:00 北北西 3 4,000m 6 100 1010 雨 もや
25 14:00 北西 2 3,200m 6 93 1011 弱い雨 もや
RJCB 270400Z 34006KT 290V020 9999 FEW050 18/05 Q1001
RJCB 270300Z 35012KT 9999 FEW050 18/06 Q1001
RJCB 270200Z 35014KT 310V010 9999 FEW050 18/05 Q1001
RJCB 270100Z 34009KT 300V010 9999 FEW050 18/05 Q1001
RJCB 270000Z 08004KT 040V120 9999 FEW040 SCT/// 17/06 Q1001
RJCB 262300Z 11003KT 060V160 9999 FEW040 BKN/// 13/04 Q1000
RJCB 262240Z 11004KT 040V140 9999 FEW040 BKN/// 12/04 Q1000 RMK 1CU040 A2955
RJCB 261100Z 00000KT CAVOK 10/02 Q1001
RJCB 261000Z VRB01KT CAVOK 13/01 Q1000
RJCB 260900Z 35010KT 9999 FEW060 SCT/// 14/02 Q0999
RJCB 260800Z 34011KT 9999 FEW060 SCT/// 15/02 Q0999
RJCB 260700Z 34016KT 9999 FEW060 SCT080 16/03 Q0998
RJCB 260600Z 31013G24KT 270V350 9999 FEW050 SCT/// 15/02 Q0998
RJCB 260500Z 32012G23KT 280V340 9999 FEW050 SCT/// 16/05 Q0997
RJCB 260400Z 34007KT 9999 FEW025 BKN050 14/08 Q0997
RJCB 260300Z VRB02KT 9999 FEW020 SCT050 BKN070 13/07 Q0997
RJCB 260200Z VRB02KT 9999 FEW020 SCT070 11/06 Q0998
RJCB 260100Z VRB02KT 9999 FEW020 BKN070 10/05 Q0999
RJCB 260000Z VRB02KT 9999 -SHRA FEW015 BKN050 08/05 Q0999
RJCB 252300Z 02004KT 350V060 9999 FEW008 BKN040 07/04 Q1000
RJCB 252240Z 02004KT 350V050 9999 FEW008 BKN040 07/04 Q1000 RMK 1ST008 7SC040 A2953
RJCB 251100Z 32009KT 280V350 9999 -SHRA FEW010 SCT015 BKN025 04/03 Q1008
RJCB 251000Z 34012KT 5000 -SHRA BR FEW006 SCT015 BKN025 05/03 Q1009
RJCB 250900Z 36011KT 4000 SHRA BR FEW004 SCT015 BKN020 05/04 Q1009
RJCB 250800Z 34008KT 4000 RA BR FEW002 SCT005 BKN015 06/06 Q1010
RJCB 250727Z 34003KT 290V060 4000 RA BR FEW004 SCT008 BKN015 06/06 Q1010 RMK 1ST004 3ST008 7ST015 A2983
RJCB 250700Z VRB02KT 4000 -RA BR FEW004 SCT008 BKN012 06/06 Q1010
RJCB 250600Z 33005KT 290V350 4000 RA BR FEW004 SCT009 BKN015 06/06 Q1010
RJCB 250500Z 32004KT 260V340 3200 -RA BR FEW002 BKN008 BKN012 06/05 Q1011